createdAt,value
2018-02-08T00:00:34.085Z,58.03
2018-02-08T00:03:01.527Z,54.30
2018-02-08T00:05:28.939Z,56.20
2018-02-08T00:07:56.366Z,51.47
2018-02-08T00:10:24.563Z,56.60
2018-02-08T00:12:51.979Z,52.77
2018-02-08T00:15:19.408Z,52.67
2018-02-08T00:17:47.648Z,52.20
2018-02-08T00:20:16.052Z,59.83
2018-02-08T00:22:45.446Z,59.10
2018-02-08T00:25:12.871Z,58.17
2018-02-08T00:27:41.073Z,58.87
2018-02-08T00:30:08.511Z,57.30
2018-02-08T00:32:35.940Z,57.77
2018-02-08T00:35:03.375Z,55.30
2018-02-08T00:37:30.827Z,62.70
2018-02-08T00:39:58.247Z,53.07
2018-02-08T00:42:25.698Z,58.73
2018-02-08T00:44:53.179Z,60.40
2018-02-08T00:47:20.610Z,57.17
2018-02-08T00:49:48.040Z,55.80
2018-02-08T00:52:15.481Z,58.43
2018-02-08T00:54:42.904Z,62.93
2018-02-08T00:57:10.387Z,59.70
2018-02-08T00:59:37.819Z,55.77
2018-02-08T01:02:05.252Z,61.87
2018-02-08T01:04:32.689Z,62.57
2018-02-08T01:07:00.148Z,58.83
2018-02-08T01:09:27.583Z,61.77
2018-02-08T01:11:55.024Z,63.53
2018-02-08T01:14:22.443Z,64.03
2018-02-08T01:16:49.871Z,67.83
2018-02-08T01:19:17.327Z,65.83
2018-02-08T01:21:44.747Z,56.50
2018-02-08T01:24:12.944Z,65.10
2018-02-08T01:26:40.371Z,59.77
2018-02-08T01:29:07.815Z,61.43
2018-02-08T01:31:35.263Z,57.97
2018-02-08T01:34:02.704Z,63.33
2018-02-08T01:36:30.132Z,59.60
2018-02-08T01:38:57.627Z,62.37
2018-02-08T01:41:25.072Z,62.80
2018-02-08T01:43:52.516Z,59.20
2018-02-08T01:46:19.940Z,61.87
2018-02-08T01:48:47.364Z,62.80
2018-02-08T01:51:14.803Z,68.77
2018-02-08T01:53:42.252Z,68.93
2018-02-08T01:56:09.681Z,66.03
2018-02-08T01:58:37.102Z,62.17
2018-02-08T02:01:04.540Z,65.50
2018-02-08T02:03:31.983Z,64.73
2018-02-08T02:05:59.431Z,66.80
2018-02-08T02:08:26.884Z,68.20
2018-02-08T02:10:54.335Z,60.33
2018-02-08T02:13:21.767Z,62.27
2018-02-08T02:15:49.196Z,64.50
2018-02-08T02:18:16.639Z,64.57
2018-02-08T02:20:44.069Z,67.50
2018-02-08T02:23:11.510Z,63.90
2018-02-08T02:25:38.931Z,64.07
2018-02-08T02:28:07.131Z,65.80
2018-02-08T02:30:34.608Z,63.53
2018-02-08T02:33:02.044Z,67.97
2018-02-08T02:35:29.499Z,64.67
2018-02-08T02:37:56.947Z,69.43
2018-02-08T02:40:24.375Z,67.73
2018-02-08T02:42:51.805Z,63.90
2018-02-08T02:45:19.248Z,74.60
2018-02-08T02:47:46.795Z,74.97
2018-02-08T02:50:14.236Z,69.50
2018-02-08T02:52:41.664Z,70.70
2018-02-08T02:55:09.091Z,72.33
2018-02-08T02:57:36.567Z,63.67
2018-02-08T03:00:04.002Z,70.30
2018-02-08T03:02:31.435Z,73.23
2018-02-08T03:04:58.863Z,62.67
2018-02-08T03:07:26.291Z,66.23
2018-02-08T03:09:53.776Z,67.73
2018-02-08T03:12:21.211Z,68.03
2018-02-08T03:14:48.652Z,67.57
2018-02-08T03:17:16.091Z,62.70
2018-02-08T03:19:43.543Z,68.20
2018-02-08T03:22:10.984Z,72.13
2018-02-08T03:24:38.420Z,69.90
2018-02-08T03:27:05.956Z,67.47
2018-02-08T03:29:33.403Z,71.37
2018-02-08T03:32:00.828Z,66.77
2018-02-08T03:34:28.265Z,70.47
2018-02-08T03:36:55.695Z,66.97
2018-02-08T03:39:23.119Z,65.90
2018-02-08T03:41:50.579Z,71.67
2018-02-08T03:44:18.016Z,74.50
2018-02-08T03:46:45.871Z,71.70
2018-02-08T03:49:13.325Z,72.17
2018-02-08T03:51:40.797Z,71.77
2018-02-08T03:54:08.191Z,72.07
2018-02-08T03:56:35.619Z,71.07
2018-02-08T03:59:03.064Z,75.30
2018-02-08T04:01:30.518Z,66.80
2018-02-08T04:03:57.977Z,71.40
2018-02-08T04:06:25.415Z,76.13
2018-02-08T04:08:52.847Z,77.80
2018-02-08T04:11:20.271Z,75.80
2018-02-08T04:13:47.727Z,76.03
2018-02-08T04:16:15.167Z,76.33
2018-02-08T04:18:42.608Z,68.97
2018-02-08T04:21:10.049Z,75.27
2018-02-08T04:23:38.238Z,80.37
2018-02-08T04:26:05.675Z,81.77
2018-02-08T04:28:33.139Z,76.97
2018-02-08T04:31:00.560Z,73.07
2018-02-08T04:33:27.991Z,78.07
2018-02-08T04:35:55.427Z,77.00
2018-02-08T04:38:34.916Z,76.13
2018-02-08T04:41:15.056Z,72.17
2018-02-08T04:43:55.193Z,73.00
2018-02-08T04:46:35.344Z,75.13
2018-02-08T04:49:02.807Z,76.87
2018-02-08T04:51:30.240Z,81.23
2018-02-08T04:53:57.683Z,80.13
2018-02-08T04:56:25.140Z,70.77
2018-02-08T04:58:52.580Z,75.83
2018-02-08T05:01:20.017Z,78.00
2018-02-08T05:03:47.448Z,74.67
2018-02-08T05:06:14.882Z,79.93
2018-02-08T05:08:42.320Z,73.60
2018-02-08T05:11:09.775Z,76.57
2018-02-08T05:13:37.223Z,78.40
2018-02-08T05:16:04.659Z,81.27
2018-02-08T05:18:32.087Z,90.97
2018-02-08T05:20:59.532Z,80.23
2018-02-08T05:23:26.976Z,88.10
2018-02-08T05:25:54.420Z,80.07
2018-02-08T05:28:21.858Z,88.97
2018-02-08T05:30:49.295Z,88.10
2018-02-08T05:33:16.736Z,86.57
2018-02-08T05:35:44.176Z,84.77
2018-02-08T05:38:11.615Z,91.13
2018-02-08T05:40:39.059Z,91.53
2018-02-08T05:43:06.498Z,93.60
2018-02-08T05:45:33.927Z,87.87
2018-02-08T05:48:02.148Z,95.53
2018-02-08T05:50:29.575Z,91.27
2018-02-08T05:52:57.024Z,86.23
2018-02-08T05:55:24.521Z,86.83
2018-02-08T05:57:51.980Z,89.50
2018-02-08T06:00:19.956Z,91.60
2018-02-08T06:02:47.396Z,86.23
2018-02-08T06:05:14.906Z,90.73
2018-02-08T06:07:42.299Z,90.13
2018-02-08T06:10:09.736Z,82.63
2018-02-08T06:12:37.171Z,108.13
2018-02-08T06:15:04.612Z,80.57
2018-02-08T06:17:32.052Z,81.17
2018-02-08T06:19:59.511Z,81.07
2018-02-08T06:22:26.940Z,84.17
2018-02-08T06:24:54.370Z,86.47
2018-02-08T06:27:21.883Z,77.70
2018-02-08T06:29:49.315Z,77.53
2018-02-08T06:32:16.772Z,81.23
2018-02-08T06:34:44.943Z,77.13
2018-02-08T06:37:12.399Z,82.27
2018-02-08T06:39:39.830Z,82.17
2018-02-08T06:42:07.269Z,87.77
2018-02-08T06:44:34.688Z,85.60
2018-02-08T06:47:02.123Z,92.73
2018-02-08T06:49:29.560Z,92.37
2018-02-08T06:51:57.787Z,90.73
2018-02-08T06:54:25.214Z,86.10
2018-02-08T06:56:52.694Z,84.60
2018-02-08T06:59:20.875Z,92.10
2018-02-08T07:01:48.315Z,85.20
2018-02-08T07:04:15.780Z,89.90
2018-02-08T07:06:43.207Z,95.83
2018-02-08T07:09:10.655Z,97.30
2018-02-08T07:11:38.128Z,90.77
2018-02-08T07:14:05.559Z,91.90
2018-02-08T07:16:33.027Z,90.30
2018-02-08T07:19:00.467Z,96.50
2018-02-08T07:21:27.907Z,88.87
2018-02-08T07:23:55.352Z,94.70
2018-02-08T07:26:22.779Z,96.53
2018-02-08T07:28:50.220Z,92.53
2018-02-08T07:31:17.666Z,99.57
2018-02-08T07:33:45.104Z,100.87
2018-02-08T07:36:12.555Z,92.67
2018-02-08T07:38:39.997Z,103.30
2018-02-08T07:41:07.425Z,83.27
2018-02-08T07:43:34.852Z,85.90
2018-02-08T07:46:02.296Z,89.70
2018-02-08T07:48:29.749Z,82.67
2018-02-08T07:50:57.184Z,90.03
2018-02-08T07:53:24.623Z,89.90
2018-02-08T07:55:52.058Z,87.93
2018-02-08T07:58:19.508Z,94.40
2018-02-08T08:00:46.926Z,86.17
2018-02-08T08:03:14.373Z,85.60
2018-02-08T08:05:41.796Z,86.57
2018-02-08T08:08:09.265Z,95.00
2018-02-08T08:10:36.715Z,86.57
2018-02-08T08:13:04.146Z,85.37
2018-02-08T08:15:31.580Z,89.87
2018-02-08T08:17:59.020Z,80.37
2018-02-08T08:20:26.468Z,87.17
2018-02-08T08:22:53.913Z,84.97
2018-02-08T08:25:21.481Z,85.10
2018-02-08T08:27:48.948Z,81.00
2018-02-08T08:30:16.380Z,86.57
2018-02-08T08:32:43.806Z,89.90
2018-02-08T08:35:11.244Z,91.63
2018-02-08T08:37:38.678Z,85.33
2018-02-08T08:40:06.136Z,82.73
2018-02-08T08:42:33.571Z,83.83
2018-02-08T08:45:00.991Z,79.83
2018-02-08T08:47:28.441Z,85.87
2018-02-08T08:49:55.855Z,80.97
2018-02-08T08:52:23.280Z,85.43
2018-02-08T08:54:51.496Z,78.83
2018-02-08T08:57:18.939Z,81.70
2018-02-08T08:59:47.241Z,84.67
2018-02-08T09:02:15.436Z,79.67
2018-02-08T09:04:42.882Z,75.60
2018-02-08T09:07:10.291Z,79.97
2018-02-08T09:09:37.732Z,80.23
2018-02-08T09:12:05.172Z,80.10
2018-02-08T09:14:32.607Z,75.70
2018-02-08T09:17:00.791Z,74.40
2018-02-08T09:19:28.239Z,79.03
2018-02-08T09:21:55.695Z,80.73
2018-02-08T09:24:23.140Z,85.63
2018-02-08T09:26:50.567Z,80.13
2018-02-08T09:29:17.995Z,82.53
2018-02-08T09:31:45.444Z,77.13
2018-02-08T09:34:12.878Z,80.90
2018-02-08T09:36:40.295Z,83.53
2018-02-08T09:39:08.517Z,89.63
2018-02-08T09:41:35.935Z,84.73
2018-02-08T09:44:03.380Z,90.97
2018-02-08T09:46:30.836Z,89.77
2018-02-08T09:48:58.227Z,93.60
2018-02-08T09:51:25.655Z,89.47
2018-02-08T09:53:53.855Z,92.17
2018-02-08T09:56:21.283Z,89.87
2018-02-08T09:58:48.718Z,80.60
2018-02-08T10:01:16.185Z,82.57
2018-02-08T10:03:43.605Z,86.43
2018-02-08T10:06:11.036Z,90.77
2018-02-08T10:08:39.215Z,82.10
2018-02-08T10:11:06.663Z,84.23
2018-02-08T10:13:34.096Z,88.37
2018-02-08T10:16:01.528Z,84.93
2018-02-08T10:18:28.964Z,84.20
2018-02-08T10:20:56.400Z,88.03
2018-02-08T10:23:24.596Z,85.17
2018-02-08T10:25:52.027Z,82.47
2018-02-08T10:28:19.452Z,84.73
2018-02-08T10:30:46.890Z,98.07
2018-02-08T10:33:14.312Z,82.40
2018-02-08T10:35:42.529Z,83.77
2018-02-08T10:38:09.947Z,85.00
2018-02-08T10:40:37.387Z,83.07
2018-02-08T10:43:04.808Z,78.10
2018-02-08T10:45:32.999Z,81.90
2018-02-08T10:48:00.419Z,83.20
2018-02-08T10:50:27.867Z,85.80
2018-02-08T10:52:55.348Z,84.90
2018-02-08T10:55:22.804Z,80.07
2018-02-08T10:57:50.234Z,82.23
2018-02-08T11:00:17.661Z,83.40
2018-02-08T11:02:45.103Z,89.47
2018-02-08T11:05:12.532Z,88.67
2018-02-08T11:07:39.958Z,85.03
2018-02-08T11:10:07.416Z,83.23
2018-02-08T11:12:34.835Z,87.47
2018-02-08T11:15:02.280Z,79.57
2018-02-08T11:17:29.703Z,80.17
2018-02-08T11:19:57.906Z,76.33
2018-02-08T11:22:25.323Z,80.17
2018-02-08T11:24:52.740Z,72.40
2018-02-08T11:27:20.955Z,74.87
2018-02-08T11:29:48.359Z,72.73
2018-02-08T11:32:15.803Z,75.27
2018-02-08T11:34:43.222Z,68.60
2018-02-08T11:37:11.416Z,71.97
2018-02-08T11:39:38.847Z,78.87
2018-02-08T11:42:06.324Z,73.10
2018-02-08T11:44:33.770Z,73.83
2018-02-08T11:47:01.208Z,71.47
2018-02-08T11:49:28.636Z,78.50
2018-02-08T11:51:56.116Z,72.33
2018-02-08T11:54:23.492Z,70.90
2018-02-08T11:56:50.947Z,70.17
2018-02-08T11:59:18.371Z,70.80
2018-02-08T12:01:45.791Z,70.97
2018-02-08T12:04:13.984Z,72.10
2018-02-08T12:06:42.198Z,65.63
2018-02-08T12:09:11.136Z,64.20
2018-02-08T12:11:38.556Z,61.90
2018-02-08T12:14:05.980Z,62.43
2018-02-08T12:16:34.191Z,65.37
2018-02-08T12:19:01.620Z,61.87
2018-02-08T12:21:29.033Z,66.53
2018-02-08T12:23:56.463Z,68.67
2018-02-08T12:26:24.657Z,64.53
2018-02-08T12:28:52.116Z,72.73
2018-02-08T12:31:19.552Z,63.73
2018-02-08T12:33:46.982Z,62.80
2018-02-08T12:36:15.204Z,62.60
2018-02-08T12:38:43.394Z,61.97
2018-02-08T12:41:10.837Z,65.23
2018-02-08T12:43:38.260Z,65.63
2018-02-08T12:46:05.721Z,66.03
2018-02-08T12:48:33.135Z,61.03
2018-02-08T12:51:00.556Z,65.77
2018-02-08T12:53:27.993Z,65.90
2018-02-08T12:55:56.915Z,68.93
2018-02-08T12:58:24.374Z,65.73
2018-02-08T13:00:51.815Z,65.67
2018-02-08T13:03:19.236Z,62.37
2018-02-08T13:05:46.659Z,65.17
2018-02-08T13:08:14.851Z,64.80
2018-02-08T13:10:42.267Z,64.27
2018-02-08T13:13:09.696Z,63.20
2018-02-08T13:15:37.887Z,61.20
2018-02-08T13:18:05.307Z,60.73
2018-02-08T13:20:32.739Z,63.77
2018-02-08T13:23:00.935Z,69.60
2018-02-08T13:25:28.377Z,63.03
2018-02-08T13:27:55.787Z,60.40
2018-02-08T13:30:23.244Z,62.17
2018-02-08T13:32:50.672Z,61.00
2018-02-08T13:35:18.114Z,64.63
2018-02-08T13:37:46.308Z,64.13
2018-02-08T13:40:34.572Z,67.33
2018-02-08T13:43:02.001Z,64.50
2018-02-08T13:45:33.883Z,67.40
2018-02-08T13:48:12.876Z,68.13
2018-02-08T13:51:00.956Z,70.03
2018-02-08T13:53:33.959Z,68.70
2018-02-08T13:56:02.704Z,72.50
2018-02-08T13:58:35.950Z,69.03
2018-02-08T14:01:05.951Z,68.23
2018-02-08T14:03:33.367Z,66.57
2018-02-08T14:06:01.564Z,67.57
2018-02-08T14:08:28.993Z,67.20
2018-02-08T14:10:56.423Z,63.77
2018-02-08T14:13:23.856Z,64.67
2018-02-08T14:15:52.057Z,68.13
2018-02-08T14:18:19.491Z,65.57
2018-02-08T14:20:46.924Z,66.63
2018-02-08T14:23:14.343Z,63.77
2018-02-08T14:25:42.546Z,65.90
2018-02-08T14:28:09.966Z,60.57
2018-02-08T14:30:37.383Z,65.03
2018-02-08T14:33:05.585Z,61.40
2018-02-08T14:35:33.016Z,63.73
2018-02-08T14:38:00.448Z,60.23
2018-02-08T14:40:27.899Z,64.93
2018-02-08T14:42:55.320Z,62.10
2018-02-08T14:45:22.757Z,63.60
2018-02-08T14:47:50.183Z,64.57
2018-02-08T14:50:18.395Z,68.57
2018-02-08T14:52:45.827Z,70.33
2018-02-08T14:55:13.264Z,66.13
2018-02-08T14:57:40.694Z,63.37
2018-02-08T15:00:08.123Z,68.40
2018-02-08T15:02:35.568Z,68.77
2018-02-08T15:05:03.820Z,74.90
2018-02-08T15:07:31.207Z,73.17
2018-02-08T15:09:58.643Z,65.20
2018-02-08T15:12:26.091Z,69.40
2018-02-08T15:14:53.522Z,67.87
2018-02-08T15:17:20.950Z,66.77
2018-02-08T15:19:48.380Z,63.40
2018-02-08T15:22:15.800Z,64.93
2018-02-08T15:24:43.995Z,60.80
2018-02-08T15:27:11.420Z,64.87
2018-02-08T15:29:39.608Z,68.37
2018-02-08T15:32:07.044Z,68.50
2018-02-08T15:34:34.468Z,65.03
2018-02-08T15:37:01.905Z,75.50
2018-02-08T15:39:30.094Z,65.07
2018-02-08T15:41:57.518Z,68.93
2018-02-08T15:44:24.960Z,64.13
2018-02-08T15:46:52.392Z,70.47
2018-02-08T15:49:19.820Z,70.87
2018-02-08T15:51:47.244Z,76.80
2018-02-08T15:54:15.460Z,72.57
2018-02-08T15:56:42.888Z,74.83
2018-02-08T15:59:10.320Z,70.77
2018-02-08T16:01:37.740Z,72.00
2018-02-08T16:04:05.931Z,71.77
2018-02-08T16:06:33.365Z,75.20
2018-02-08T16:09:00.801Z,70.53
2018-02-08T16:11:28.219Z,77.37
2018-02-08T16:13:56.417Z,70.70
2018-02-08T16:16:23.855Z,71.57
2018-02-08T16:18:51.275Z,78.60
2018-02-08T16:21:18.701Z,74.40
2018-02-08T16:23:46.916Z,74.03
2018-02-08T16:26:14.331Z,70.40
2018-02-08T16:28:41.768Z,68.73
2018-02-08T16:31:09.183Z,73.03
2018-02-08T16:33:37.387Z,71.90
2018-02-08T16:36:04.841Z,76.53
2018-02-08T16:38:32.260Z,74.63
2018-02-08T16:40:59.684Z,76.27
2018-02-08T16:43:27.123Z,74.07
2018-02-08T16:45:54.554Z,73.43
2018-02-08T16:48:22.750Z,72.30
2018-02-08T16:50:50.175Z,77.80
2018-02-08T16:53:17.599Z,77.07
2018-02-08T16:55:45.792Z,70.77
2018-02-08T16:58:13.219Z,76.57
2018-02-08T17:00:40.652Z,72.50
2018-02-08T17:03:08.091Z,71.43
2018-02-08T17:05:36.292Z,77.60
2018-02-08T17:08:03.716Z,69.50
2018-02-08T17:10:31.139Z,71.30
2018-02-08T17:12:58.579Z,80.07
2018-02-08T17:15:26.019Z,72.70
2018-02-08T17:17:53.468Z,71.23
2018-02-08T17:20:20.895Z,73.47
2018-02-08T17:22:48.344Z,74.53
2018-02-08T17:25:15.788Z,68.77
2018-02-08T17:27:43.207Z,72.23
2018-02-08T17:30:11.408Z,76.50
2018-02-08T17:32:38.827Z,77.87
2018-02-08T17:35:06.275Z,78.13
2018-02-08T17:37:33.703Z,74.90
2018-02-08T17:40:01.191Z,77.27
2018-02-08T17:42:29.319Z,79.40
2018-02-08T17:44:56.796Z,76.70
2018-02-08T17:47:24.210Z,79.47
2018-02-08T17:49:51.643Z,77.77
2018-02-08T17:52:19.063Z,76.90
2018-02-08T17:54:47.276Z,74.47
2018-02-08T17:57:14.725Z,78.63
2018-02-08T17:59:42.139Z,75.23
2018-02-08T18:02:09.588Z,74.93
2018-02-08T18:04:37.044Z,81.17
2018-02-08T18:07:04.455Z,80.27
2018-02-08T18:09:31.894Z,77.40
2018-02-08T18:11:59.331Z,78.13
2018-02-08T18:14:26.775Z,84.60
2018-02-08T18:16:54.212Z,83.37
2018-02-08T18:19:21.635Z,92.07
2018-02-08T18:21:49.832Z,81.73
2018-02-08T18:24:17.263Z,91.13
2018-02-08T18:26:44.693Z,82.70
2018-02-08T18:29:12.180Z,85.47
2018-02-08T18:31:39.630Z,87.47
2018-02-08T18:34:07.061Z,86.83
2018-02-08T18:36:34.517Z,84.27
2018-02-08T18:39:01.947Z,92.43
2018-02-08T18:41:29.363Z,91.57
2018-02-08T18:43:56.823Z,88.03
2018-02-08T18:46:24.269Z,78.90
2018-02-08T18:48:51.701Z,79.83
2018-02-08T18:51:19.143Z,81.17
2018-02-08T18:53:46.563Z,86.93
2018-02-08T18:56:13.997Z,84.90
2018-02-08T18:58:41.445Z,85.70
2018-02-08T19:01:08.884Z,80.73
2018-02-08T19:03:36.315Z,83.50
2018-02-08T19:06:03.750Z,85.43
2018-02-08T19:08:31.955Z,79.60
2018-02-08T19:10:59.380Z,84.03
2018-02-08T19:13:26.811Z,78.30
2018-02-08T19:15:54.272Z,81.70
2018-02-08T19:18:21.712Z,80.60
2018-02-08T19:20:49.132Z,82.90
2018-02-08T19:23:16.556Z,79.40
2018-02-08T19:25:44.756Z,80.23
2018-02-08T19:28:12.174Z,79.00
2018-02-08T19:30:39.600Z,79.47
2018-02-08T19:33:07.812Z,80.63
2018-02-08T19:35:35.248Z,81.13
2018-02-08T19:38:02.677Z,80.13
2018-02-08T19:40:30.107Z,85.33
2018-02-08T19:42:57.540Z,83.83
2018-02-08T19:45:24.971Z,86.10
2018-02-08T19:47:52.425Z,91.90
2018-02-08T19:50:20.400Z,82.07
2018-02-08T19:52:47.839Z,80.57
2018-02-08T19:55:15.280Z,85.00
2018-02-08T19:57:42.700Z,82.80
2018-02-08T20:00:10.115Z,82.30
2018-02-08T20:02:38.319Z,82.33
2018-02-08T20:05:05.740Z,88.80
2018-02-08T20:07:33.212Z,85.67
2018-02-08T20:10:00.662Z,82.10
2018-02-08T20:12:28.103Z,88.00
2018-02-08T20:14:58.299Z,83.70
2018-02-08T20:17:25.727Z,88.83
2018-02-08T20:19:53.210Z,91.33
2018-02-08T20:22:20.938Z,86.40
2018-02-08T20:24:48.360Z,82.60
2018-02-08T20:27:15.799Z,82.93
2018-02-08T20:29:43.239Z,93.73
2018-02-08T20:32:10.683Z,83.47
2018-02-08T20:34:38.108Z,92.67
2018-02-08T20:37:05.542Z,91.20
2018-02-08T20:39:32.992Z,88.07
2018-02-08T20:42:00.432Z,90.00
2018-02-08T20:44:27.868Z,94.47
2018-02-08T20:46:55.307Z,92.27
2018-02-08T20:49:22.752Z,89.20
2018-02-08T20:51:50.960Z,84.80
2018-02-08T20:54:18.386Z,88.20
2018-02-08T20:56:45.800Z,93.57
2018-02-08T20:59:13.231Z,94.83
2018-02-08T21:01:41.428Z,87.20
2018-02-08T21:04:08.885Z,93.77
2018-02-08T21:06:36.339Z,89.97
2018-02-08T21:09:03.789Z,86.50
2018-02-08T21:11:31.230Z,88.80
2018-02-08T21:13:58.748Z,87.93
2018-02-08T21:16:26.176Z,94.07
2018-02-08T21:18:53.628Z,87.43
2018-02-08T21:21:21.060Z,93.57
2018-02-08T21:23:48.483Z,87.07
2018-02-08T21:26:15.928Z,85.13
2018-02-08T21:28:43.371Z,93.70
2018-02-08T21:31:10.828Z,90.83
2018-02-08T21:33:38.264Z,85.83
2018-02-08T21:36:05.692Z,91.37
2018-02-08T21:38:33.130Z,85.93
2018-02-08T21:41:00.559Z,88.73
2018-02-08T21:43:27.979Z,81.83
2018-02-08T21:45:56.219Z,88.43
2018-02-08T21:48:23.615Z,87.03
2018-02-08T21:50:51.051Z,86.93
2018-02-08T21:53:18.519Z,88.23
2018-02-08T21:55:45.952Z,82.33
2018-02-08T21:58:13.371Z,89.33
2018-02-08T22:00:40.792Z,85.63
2018-02-08T22:03:08.984Z,89.67
2018-02-08T22:05:36.439Z,87.77
2018-02-08T22:08:03.856Z,93.73
2018-02-08T22:10:31.295Z,86.10
2018-02-08T22:12:59.147Z,85.93
2018-02-08T22:15:26.590Z,85.20
2018-02-08T22:17:54.768Z,87.97
2018-02-08T22:20:22.217Z,89.67
2018-02-08T22:22:49.635Z,83.30
2018-02-08T22:25:17.072Z,88.90
2018-02-08T22:27:44.503Z,85.77
2018-02-08T22:30:12.723Z,86.37
2018-02-08T22:32:40.144Z,89.27
2018-02-08T22:35:07.576Z,85.37
2018-02-08T22:37:35.004Z,90.93
2018-02-08T22:40:02.448Z,99.10
2018-02-08T22:42:29.912Z,98.47
2018-02-08T22:44:57.332Z,90.93
2018-02-08T22:47:24.779Z,98.93
2018-02-08T22:49:52.230Z,102.70
2018-02-08T22:52:19.660Z,101.63
2018-02-08T22:54:47.112Z,101.60
2018-02-08T22:57:14.560Z,96.17
2018-02-08T22:59:42.005Z,101.37
2018-02-08T23:02:09.468Z,104.23
2018-02-08T23:04:36.910Z,100.43
2018-02-08T23:07:04.339Z,102.83
2018-02-08T23:09:31.772Z,102.37
2018-02-08T23:11:59.211Z,100.40
2018-02-08T23:14:26.668Z,100.30
2018-02-08T23:16:54.096Z,100.57
2018-02-08T23:19:21.539Z,100.47
2018-02-08T23:21:48.983Z,90.33
2018-02-08T23:24:16.411Z,97.37
2018-02-08T23:26:43.839Z,94.37
2018-02-08T23:29:11.267Z,93.73
2018-02-08T23:31:38.723Z,100.07
2018-02-08T23:34:06.187Z,106.37
2018-02-08T23:36:33.637Z,94.70
2018-02-08T23:39:01.076Z,99.37
2018-02-08T23:41:28.509Z,96.57
2018-02-08T23:43:55.934Z,89.80
2018-02-08T23:46:23.381Z,97.50
2018-02-08T23:48:50.819Z,102.20
2018-02-08T23:51:18.272Z,99.57
2018-02-08T23:53:45.687Z,98.47
2018-02-08T23:56:13.115Z,94.43
2018-02-08T23:58:41.316Z,103.53
